This is the latest recevied weather packets stored in our database for station/object OK2JF-6. If no packets are shown the sender has not sent any weather packets the latest 10 day(s).
| Time | Temp. | Humidity | Pressure | Rain* | Wind** | Luminosity | Snow |
|---|---|---|---|---|---|---|---|
| 1776886623 | 4.44° C | 62% | 1093.2 hPa | 0 mm | - | 0 W/m² | - |
| 1776886323 | 4.44° C | 61% | 1093.1 hPa | 0 mm | - | 0 W/m² | - |
| 1776886143 | 4.44° C | 62% | 1093.2 hPa | 0 mm | - | 0 W/m² | - |
| 1776885918 | 5° C | 61% | 1093.3 hPa | 0 mm | - | 0 W/m² | - |
| 1776885603 | 5° C | 60% | 1093.2 hPa | 0 mm | - | 0 W/m² | - |
| 1776885543 | 5° C | 60% | 1093.3 hPa | 0 mm | - | 0 W/m² | - |
| 1776885483 | 5° C | 60% | 1093.1 hPa | 0 mm | - | 0 W/m² | - |
| 1776884523 | 5.56° C | 56% | 1093.2 hPa | 0 mm | - | 0 W/m² | - |
| 1776884464 | 5.56° C | 55% | 1093 hPa | 0 mm | - | 0 W/m² | - |
| 1776884403 | 5.56° C | 55% | 1093.3 hPa | 0 mm | - | 0 W/m² | - |
| 1776884343 | 5.56° C | 55% | 1093.2 hPa | 0 mm | - | 0 W/m² | - |
| 1776883743 | 6.11° C | 53% | 1093.4 hPa | 0 mm | - | 0 W/m² | - |
| 1776883323 | 6.67° C | 50% | 1093.2 hPa | 0 mm | - | 0 W/m² | - |
| 1776882963 | 6.67° C | 49% | 1093.2 hPa | 0 mm | - | 0 W/m² | - |
| 1776882723 | 7.22° C | 49% | 1093.3 hPa | 0 mm | - | 0 W/m² | - |
| 1776882484 | 7.78° C | 48% | 1093.2 hPa | 0 mm | - | 0 W/m² | - |
| 1776882123 | 7.78° C | 47% | 1093.1 hPa | 0 mm | - | 0 W/m² | - |
| 1776881943 | 8.33° C | 46% | 1093.2 hPa | 0 mm | - | 0 W/m² | - |
| 1776881463 | 8.89° C | 46% | 1093.1 hPa | 0 mm | - | 0 W/m² | - |
| 1776881224 | 8.89° C | 46% | 1093.1 hPa | 0 mm | - | 0 W/m² | - |
| 1776881163 | 8.89° C | 46% | 1093 hPa | 0 mm | - | 0 W/m² | - |
| 1776881103 | 8.89° C | 46% | 1093 hPa | 0 mm | - | 1 W/m² | - |
| 1776880683 | 9.44° C | 45% | 1093.1 hPa | 0 mm | - | 2 W/m² | - |
| 1776880623 | 9.44° C | 44% | 1093 hPa | 0 mm | - | 2 W/m² | - |
| 1776880577 | 9.44° C | 44% | 1092.6 hPa | 0 mm | - | 2 W/m² | - |
* Rain latest hour (hover to see other rain measurements)
** Current wind speed in m/s (hover to see current wind gust speed)